sensor_id;sensor_type;location;lat;lon;timestamp;temperature;humidity
4183;DHT22;2105;52.300;9.182;2023-06-04T00:02:04;8.30;99.90
4183;DHT22;2105;52.300;9.182;2023-06-04T00:04:31;8.30;99.90
4183;DHT22;2105;52.300;9.182;2023-06-04T00:06:57;8.20;99.90
4183;DHT22;2105;52.300;9.182;2023-06-04T00:09:24;8.30;99.90
4183;DHT22;2105;52.300;9.182;2023-06-04T00:11:51;8.30;1.00
4183;DHT22;2105;52.300;9.182;2023-06-04T00:14:18;8.30;1.00
4183;DHT22;2105;52.300;9.182;2023-06-04T00:16:44;8.30;1.00
4183;DHT22;2105;52.300;9.182;2023-06-04T00:19:13;8.30;1.00
4183;DHT22;2105;52.300;9.182;2023-06-04T00:21:40;8.30;49.60
4183;DHT22;2105;52.300;9.182;2023-06-04T00:24:06;8.30;24.70
4183;DHT22;2105;52.300;9.182;2023-06-04T00:26:33;8.40;99.90
4183;DHT22;2105;52.300;9.182;2023-06-04T00:29:00;8.30;99.90
4183;DHT22;2105;52.300;9.182;2023-06-04T00:31:27;8.30;99.90
4183;DHT22;2105;52.300;9.182;2023-06-04T00:33:54;8.30;99.90
4183;DHT22;2105;52.300;9.182;2023-06-04T00:36:22;8.30;1.00
4183;DHT22;2105;52.300;9.182;2023-06-04T00:38:49;8.20;99.90
4183;DHT22;2105;52.300;9.182;2023-06-04T00:41:16;8.20;99.90
4183;DHT22;2105;52.300;9.182;2023-06-04T00:43:42;8.10;99.90
4183;DHT22;2105;52.300;9.182;2023-06-04T00:46:11;8.10;99.90
4183;DHT22;2105;52.300;9.182;2023-06-04T00:48:43;8.00;99.90
4183;DHT22;2105;52.300;9.182;2023-06-04T00:51:10;8.00;99.90
4183;DHT22;2105;52.300;9.182;2023-06-04T00:53:39;7.90;99.90
4183;DHT22;2105;52.300;9.182;2023-06-04T00:56:06;7.70;99.90
4183;DHT22;2105;52.300;9.182;2023-06-04T00:58:37;7.30;99.90
4183;DHT22;2105;52.300;9.182;2023-06-04T01:01:06;7.10;1.00
4183;DHT22;2105;52.300;9.182;2023-06-04T01:03:36;7.00;99.90
4183;DHT22;2105;52.300;9.182;2023-06-04T01:06:13;7.00;99.90
4183;DHT22;2105;52.300;9.182;2023-06-04T01:08:49;6.90;1.00
4183;DHT22;2105;52.300;9.182;2023-06-04T01:11:16;7.00;1.00
4183;DHT22;2105;52.300;9.182;2023-06-04T01:13:43;7.10;1.00
4183;DHT22;2105;52.300;9.182;2023-06-04T01:16:11;7.10;99.90
4183;DHT22;2105;52.300;9.182;2023-06-04T01:18:39;7.10;99.90
4183;DHT22;2105;52.300;9.182;2023-06-04T01:21:09;7.10;99.90
4183;DHT22;2105;52.300;9.182;2023-06-04T01:23:43;7.20;99.90
4183;DHT22;2105;52.300;9.182;2023-06-04T01:26:14;7.20;99.90
4183;DHT22;2105;52.300;9.182;2023-06-04T01:28:42;7.20;99.90
4183;DHT22;2105;52.300;9.182;2023-06-04T01:31:09;7.20;99.90
4183;DHT22;2105;52.300;9.182;2023-06-04T01:33:37;7.10;1.00
4183;DHT22;2105;52.300;9.182;2023-06-04T01:36:05;7.10;1.00
4183;DHT22;2105;52.300;9.182;2023-06-04T01:38:35;7.10;1.00
4183;DHT22;2105;52.300;9.182;2023-06-04T01:41:02;7.00;1.00
4183;DHT22;2105;52.300;9.182;2023-06-04T01:43:30;7.00;1.00
4183;DHT22;2105;52.300;9.182;2023-06-04T01:46:00;7.00;99.90
4183;DHT22;2105;52.300;9.182;2023-06-04T01:48:27;7.00;99.90
4183;DHT22;2105;52.300;9.182;2023-06-04T01:50:54;7.00;99.90
4183;DHT22;2105;52.300;9.182;2023-06-04T01:53:20;7.00;1.00
4183;DHT22;2105;52.300;9.182;2023-06-04T01:55:47;7.00;99.90
4183;DHT22;2105;52.300;9.182;2023-06-04T01:58:14;7.10;99.90
4183;DHT22;2105;52.300;9.182;2023-06-04T02:00:44;7.20;99.90
4183;DHT22;2105;52.300;9.182;2023-06-04T02:03:11;7.00;99.90
4183;DHT22;2105;52.300;9.182;2023-06-04T02:05:41;6.80;1.00
4183;DHT22;2105;52.300;9.182;2023-06-04T02:08:10;6.60;1.00
4183;DHT22;2105;52.300;9.182;2023-06-04T02:10:37;6.40;1.00
4183;DHT22;2105;52.300;9.182;2023-06-04T02:13:04;6.20;99.90
4183;DHT22;2105;52.300;9.182;2023-06-04T02:15:33;6.20;1.00
4183;DHT22;2105;52.300;9.182;2023-06-04T02:18:12;6.20;1.00
4183;DHT22;2105;52.300;9.182;2023-06-04T02:20:41;6.30;85.80
4183;DHT22;2105;52.300;9.182;2023-06-04T02:23:08;6.20;70.10
4183;DHT22;2105;52.300;9.182;2023-06-04T02:25:34;6.20;1.00
4183;DHT22;2105;52.300;9.182;2023-06-04T02:28:01;6.20;1.00
4183;DHT22;2105;52.300;9.182;2023-06-04T02:30:28;6.30;91.30
4183;DHT22;2105;52.300;9.182;2023-06-04T02:32:54;6.30;1.00
4183;DHT22;2105;52.300;9.182;2023-06-04T02:35:23;6.40;1.00
4183;DHT22;2105;52.300;9.182;2023-06-04T02:37:50;6.40;1.00
4183;DHT22;2105;52.300;9.182;2023-06-04T02:40:17;6.50;1.00
4183;DHT22;2105;52.300;9.182;2023-06-04T02:42:43;6.50;1.00
4183;DHT22;2105;52.300;9.182;2023-06-04T02:45:11;6.50;99.90
4183;DHT22;2105;52.300;9.182;2023-06-04T02:47:38;6.50;99.90
4183;DHT22;2105;52.300;9.182;2023-06-04T02:50:05;6.50;1.00
4183;DHT22;2105;52.300;9.182;2023-06-04T02:52:34;6.50;1.00
4183;DHT22;2105;52.300;9.182;2023-06-04T02:55:02;6.50;1.00
4183;DHT22;2105;52.300;9.182;2023-06-04T02:57:29;6.50;1.00
4183;DHT22;2105;52.300;9.182;2023-06-04T02:59:56;6.30;1.00
4183;DHT22;2105;52.300;9.182;2023-06-04T03:02:23;6.10;99.90
4183;DHT22;2105;52.300;9.182;2023-06-04T03:04:50;6.10;76.90
4183;DHT22;2105;52.300;9.182;2023-06-04T03:07:18;6.10;1.00
4183;DHT22;2105;52.300;9.182;2023-06-04T03:09:47;6.10;1.00
4183;DHT22;2105;52.300;9.182;2023-06-04T03:12:14;6.10;1.00
4183;DHT22;2105;52.300;9.182;2023-06-04T03:14:40;6.20;1.00
4183;DHT22;2105;52.300;9.182;2023-06-04T03:17:07;6.20;1.00
4183;DHT22;2105;52.300;9.182;2023-06-04T03:19:36;6.20;1.00
4183;DHT22;2105;52.300;9.182;2023-06-04T03:22:04;6.30;1.00
4183;DHT22;2105;52.300;9.182;2023-06-04T03:24:33;6.40;99.90
4183;DHT22;2105;52.300;9.182;2023-06-04T03:27:03;6.40;99.90
4183;DHT22;2105;52.300;9.182;2023-06-04T03:29:31;6.50;99.90
4183;DHT22;2105;52.300;9.182;2023-06-04T03:31:58;6.50;99.90
4183;DHT22;2105;52.300;9.182;2023-06-04T03:34:25;6.50;1.00
4183;DHT22;2105;52.300;9.182;2023-06-04T03:36:52;6.60;1.00
4183;DHT22;2105;52.300;9.182;2023-06-04T03:39:18;6.70;1.00
4183;DHT22;2105;52.300;9.182;2023-06-04T03:41:45;6.70;99.90
4183;DHT22;2105;52.300;9.182;2023-06-04T03:44:14;6.70;86.20
4183;DHT22;2105;52.300;9.182;2023-06-04T03:46:41;6.70;1.00
4183;DHT22;2105;52.300;9.182;2023-06-04T03:49:08;6.80;1.00
4183;DHT22;2105;52.300;9.182;2023-06-04T03:51:36;6.80;99.90
4183;DHT22;2105;52.300;9.182;2023-06-04T03:54:03;6.80;1.00
4183;DHT22;2105;52.300;9.182;2023-06-04T03:56:29;6.90;99.90
4183;DHT22;2105;52.300;9.182;2023-06-04T03:58:56;7.00;1.00
4183;DHT22;2105;52.300;9.182;2023-06-04T04:01:25;7.10;1.00
4183;DHT22;2105;52.300;9.182;2023-06-04T04:03:52;7.20;99.90
4183;DHT22;2105;52.300;9.182;2023-06-04T04:06:19;7.30;99.90
4183;DHT22;2105;52.300;9.182;2023-06-04T04:08:46;7.30;99.90
4183;DHT22;2105;52.300;9.182;2023-06-04T04:11:15;7.40;3.90
4183;DHT22;2105;52.300;9.182;2023-06-04T04:13:42;7.50;99.90
4183;DHT22;2105;52.300;9.182;2023-06-04T04:16:08;7.70;99.90
4183;DHT22;2105;52.300;9.182;2023-06-04T04:18:37;7.90;99.90
4183;DHT22;2105;52.300;9.182;2023-06-04T04:21:04;8.00;1.00
4183;DHT22;2105;52.300;9.182;2023-06-04T04:23:31;8.20;1.00
4183;DHT22;2105;52.300;9.182;2023-06-04T04:25:58;8.40;1.00
4183;DHT22;2105;52.300;9.182;2023-06-04T04:28:25;8.50;1.00
4183;DHT22;2105;52.300;9.182;2023-06-04T04:30:54;8.60;1.00
4183;DHT22;2105;52.300;9.182;2023-06-04T04:33:22;8.80;18.00
4183;DHT22;2105;52.300;9.182;2023-06-04T04:35:51;9.00;1.00
4183;DHT22;2105;52.300;9.182;2023-06-04T04:38:19;9.20;99.90
4183;DHT22;2105;52.300;9.182;2023-06-04T04:40:49;9.40;1.00
4183;DHT22;2105;52.300;9.182;2023-06-04T04:43:19;9.50;1.00
4183;DHT22;2105;52.300;9.182;2023-06-04T04:45:46;9.70;99.90
4183;DHT22;2105;52.300;9.182;2023-06-04T04:48:13;9.90;1.00
4183;DHT22;2105;52.300;9.182;2023-06-04T04:50:39;10.00;99.90
4183;DHT22;2105;52.300;9.182;2023-06-04T04:53:07;10.10;1.00
4183;DHT22;2105;52.300;9.182;2023-06-04T04:55:34;10.30;5.10
4183;DHT22;2105;52.300;9.182;2023-06-04T04:58:01;10.60;1.00
4183;DHT22;2105;52.300;9.182;2023-06-04T05:00:29;10.80;1.00
4183;DHT22;2105;52.300;9.182;2023-06-04T05:02:55;10.90;1.00
4183;DHT22;2105;52.300;9.182;2023-06-04T05:05:22;11.10;1.00
4183;DHT22;2105;52.300;9.182;2023-06-04T05:07:49;11.20;1.00
4183;DHT22;2105;52.300;9.182;2023-06-04T05:10:17;11.40;6.40
4183;DHT22;2105;52.300;9.182;2023-06-04T05:12:51;11.50;1.00
4183;DHT22;2105;52.300;9.182;2023-06-04T05:15:18;11.80;1.00
4183;DHT22;2105;52.300;9.182;2023-06-04T05:17:45;12.00;99.90
4183;DHT22;2105;52.300;9.182;2023-06-04T05:20:12;12.30;99.90
4183;DHT22;2105;52.300;9.182;2023-06-04T05:22:40;12.40;32.80
4183;DHT22;2105;52.300;9.182;2023-06-04T05:25:08;12.60;1.00
4183;DHT22;2105;52.300;9.182;2023-06-04T05:27:36;12.80;1.00
4183;DHT22;2105;52.300;9.182;2023-06-04T05:30:04;12.80;1.00
4183;DHT22;2105;52.300;9.182;2023-06-04T05:32:32;12.90;1.00
4183;DHT22;2105;52.300;9.182;2023-06-04T05:34:59;13.00;1.00
4183;DHT22;2105;52.300;9.182;2023-06-04T05:37:29;13.20;64.80
4183;DHT22;2105;52.300;9.182;2023-06-04T05:39:59;13.30;1.00
4183;DHT22;2105;52.300;9.182;2023-06-04T05:42:30;13.30;15.00
4183;DHT22;2105;52.300;9.182;2023-06-04T05:44:58;13.40;26.30
4183;DHT22;2105;52.300;9.182;2023-06-04T05:47:26;13.40;99.90
4183;DHT22;2105;52.300;9.182;2023-06-04T05:49:54;13.40;1.00
4183;DHT22;2105;52.300;9.182;2023-06-04T05:52:20;13.40;1.00
4183;DHT22;2105;52.300;9.182;2023-06-04T05:54:47;13.40;1.00
4183;DHT22;2105;52.300;9.182;2023-06-04T05:57:14;13.40;13.30
4183;DHT22;2105;52.300;9.182;2023-06-04T05:59:40;13.50;86.50
4183;DHT22;2105;52.300;9.182;2023-06-04T06:02:08;13.60;20.60
4183;DHT22;2105;52.300;9.182;2023-06-04T06:04:35;13.60;1.00
4183;DHT22;2105;52.300;9.182;2023-06-04T06:07:03;13.80;1.00
4183;DHT22;2105;52.300;9.182;2023-06-04T06:09:30;13.80;1.00
4183;DHT22;2105;52.300;9.182;2023-06-04T06:11:57;13.90;17.60
4183;DHT22;2105;52.300;9.182;2023-06-04T06:14:23;14.00;1.00
4183;DHT22;2105;52.300;9.182;2023-06-04T06:16:50;14.10;1.00
4183;DHT22;2105;52.300;9.182;2023-06-04T06:19:19;14.30;1.00
4183;DHT22;2105;52.300;9.182;2023-06-04T06:21:46;14.40;1.00
4183;DHT22;2105;52.300;9.182;2023-06-04T06:24:13;14.40;1.00
4183;DHT22;2105;52.300;9.182;2023-06-04T06:26:39;14.60;1.00
4183;DHT22;2105;52.300;9.182;2023-06-04T06:29:06;14.80;1.00
4183;DHT22;2105;52.300;9.182;2023-06-04T06:31:33;14.90;1.00
4183;DHT22;2105;52.300;9.182;2023-06-04T06:34:00;15.10;1.00
4183;DHT22;2105;52.300;9.182;2023-06-04T06:36:28;15.10;1.00
4183;DHT22;2105;52.300;9.182;2023-06-04T06:38:55;15.20;1.00
4183;DHT22;2105;52.300;9.182;2023-06-04T06:41:21;15.40;1.00
4183;DHT22;2105;52.300;9.182;2023-06-04T06:43:48;15.50;1.00
4183;DHT22;2105;52.300;9.182;2023-06-04T06:46:16;15.70;1.00
4183;DHT22;2105;52.300;9.182;2023-06-04T06:48:43;15.90;1.00
4183;DHT22;2105;52.300;9.182;2023-06-04T06:51:10;16.00;1.00
4183;DHT22;2105;52.300;9.182;2023-06-04T06:53:38;16.20;1.00
4183;DHT22;2105;52.300;9.182;2023-06-04T06:56:06;16.40;1.00
4183;DHT22;2105;52.300;9.182;2023-06-04T06:58:33;16.60;1.00
4183;DHT22;2105;52.300;9.182;2023-06-04T07:01:00;16.90;1.00
4183;DHT22;2105;52.300;9.182;2023-06-04T07:03:27;17.20;1.00
4183;DHT22;2105;52.300;9.182;2023-06-04T07:05:54;17.70;1.00
4183;DHT22;2105;52.300;9.182;2023-06-04T07:08:20;18.10;1.00
4183;DHT22;2105;52.300;9.182;2023-06-04T07:10:49;18.40;1.00
4183;DHT22;2105;52.300;9.182;2023-06-04T07:13:15;19.00;1.00
4183;DHT22;2105;52.300;9.182;2023-06-04T07:15:42;19.60;1.00
4183;DHT22;2105;52.300;9.182;2023-06-04T07:18:09;20.00;1.00
4183;DHT22;2105;52.300;9.182;2023-06-04T07:20:35;20.30;1.00
4183;DHT22;2105;52.300;9.182;2023-06-04T07:23:02;20.90;1.00
4183;DHT22;2105;52.300;9.182;2023-06-04T07:25:29;21.60;1.00
4183;DHT22;2105;52.300;9.182;2023-06-04T07:27:57;22.30;1.00
4183;DHT22;2105;52.300;9.182;2023-06-04T07:30:24;22.70;99.90
4183;DHT22;2105;52.300;9.182;2023-06-04T07:32:51;23.20;99.90
4183;DHT22;2105;52.300;9.182;2023-06-04T07:35:17;23.40;99.90
4183;DHT22;2105;52.300;9.182;2023-06-04T07:37:44;23.40;99.90
4183;DHT22;2105;52.300;9.182;2023-06-04T07:40:13;23.50;99.90
4183;DHT22;2105;52.300;9.182;2023-06-04T07:42:40;23.20;99.90
4183;DHT22;2105;52.300;9.182;2023-06-04T07:45:09;23.40;99.90
4183;DHT22;2105;52.300;9.182;2023-06-04T07:47:36;23.60;99.90
4183;DHT22;2105;52.300;9.182;2023-06-04T07:50:04;23.30;99.90
4183;DHT22;2105;52.300;9.182;2023-06-04T07:52:31;22.70;99.90
4183;DHT22;2105;52.300;9.182;2023-06-04T07:54:58;22.50;99.90
4183;DHT22;2105;52.300;9.182;2023-06-04T07:57:25;22.10;99.90
4183;DHT22;2105;52.300;9.182;2023-06-04T07:59:52;21.70;99.90
4183;DHT22;2105;52.300;9.182;2023-06-04T08:02:20;21.40;99.90
4183;DHT22;2105;52.300;9.182;2023-06-04T08:04:47;21.20;99.90
4183;DHT22;2105;52.300;9.182;2023-06-04T08:07:14;20.90;99.90
4183;DHT22;2105;52.300;9.182;2023-06-04T08:09:41;20.80;99.90
4183;DHT22;2105;52.300;9.182;2023-06-04T08:12:09;20.90;99.90
4183;DHT22;2105;52.300;9.182;2023-06-04T08:14:36;20.80;99.90
4183;DHT22;2105;52.300;9.182;2023-06-04T08:17:02;20.80;99.90
4183;DHT22;2105;52.300;9.182;2023-06-04T08:19:30;20.70;99.90
4183;DHT22;2105;52.300;9.182;2023-06-04T08:21:57;20.70;99.90
4183;DHT22;2105;52.300;9.182;2023-06-04T08:24:24;20.80;99.90
4183;DHT22;2105;52.300;9.182;2023-06-04T08:26:51;20.90;99.90
4183;DHT22;2105;52.300;9.182;2023-06-04T08:29:18;21.20;99.90
4183;DHT22;2105;52.300;9.182;2023-06-04T08:31:44;21.30;99.90
4183;DHT22;2105;52.300;9.182;2023-06-04T08:34:11;21.40;99.90
4183;DHT22;2105;52.300;9.182;2023-06-04T08:36:40;21.20;99.90
4183;DHT22;2105;52.300;9.182;2023-06-04T08:39:08;21.20;99.90
4183;DHT22;2105;52.300;9.182;2023-06-04T08:41:42;21.30;99.90
4183;DHT22;2105;52.300;9.182;2023-06-04T08:44:10;21.30;99.90
4183;DHT22;2105;52.300;9.182;2023-06-04T08:46:38;21.50;99.90
4183;DHT22;2105;52.300;9.182;2023-06-04T08:49:06;21.60;99.90
4183;DHT22;2105;52.300;9.182;2023-06-04T08:51:35;21.70;99.90
4183;DHT22;2105;52.300;9.182;2023-06-04T08:54:05;21.90;99.90
4183;DHT22;2105;52.300;9.182;2023-06-04T08:56:32;21.80;99.90
4183;DHT22;2105;52.300;9.182;2023-06-04T08:59:01;21.80;99.90
4183;DHT22;2105;52.300;9.182;2023-06-04T09:01:28;21.90;99.90
4183;DHT22;2105;52.300;9.182;2023-06-04T09:03:55;21.90;99.90
4183;DHT22;2105;52.300;9.182;2023-06-04T09:06:24;22.10;99.90
4183;DHT22;2105;52.300;9.182;2023-06-04T09:08:51;22.10;99.90
4183;DHT22;2105;52.300;9.182;2023-06-04T09:11:21;22.00;99.90
4183;DHT22;2105;52.300;9.182;2023-06-04T09:13:50;22.10;99.90
4183;DHT22;2105;52.300;9.182;2023-06-04T09:16:17;22.30;99.90
4183;DHT22;2105;52.300;9.182;2023-06-04T09:18:45;22.50;99.90
4183;DHT22;2105;52.300;9.182;2023-06-04T09:21:11;22.60;99.90
4183;DHT22;2105;52.300;9.182;2023-06-04T09:23:44;22.60;99.90
4183;DHT22;2105;52.300;9.182;2023-06-04T09:26:11;23.00;99.90
4183;DHT22;2105;52.300;9.182;2023-06-04T09:28:41;23.00;99.90
4183;DHT22;2105;52.300;9.182;2023-06-04T09:31:09;22.90;99.90
4183;DHT22;2105;52.300;9.182;2023-06-04T09:33:43;22.90;99.90
4183;DHT22;2105;52.300;9.182;2023-06-04T09:36:10;22.80;99.90
4183;DHT22;2105;52.300;9.182;2023-06-04T09:38:37;22.90;99.90
4183;DHT22;2105;52.300;9.182;2023-06-04T09:41:04;23.00;99.90
4183;DHT22;2105;52.300;9.182;2023-06-04T09:43:32;23.00;99.90
4183;DHT22;2105;52.300;9.182;2023-06-04T09:46:10;22.70;99.90
4183;DHT22;2105;52.300;9.182;2023-06-04T09:48:37;22.60;99.90
4183;DHT22;2105;52.300;9.182;2023-06-04T09:51:08;22.70;99.90
4183;DHT22;2105;52.300;9.182;2023-06-04T09:53:38;23.00;99.90
4183;DHT22;2105;52.300;9.182;2023-06-04T09:56:06;23.10;99.90
4183;DHT22;2105;52.300;9.182;2023-06-04T09:58:34;23.10;99.90
4183;DHT22;2105;52.300;9.182;2023-06-04T10:01:03;23.20;99.90
4183;DHT22;2105;52.300;9.182;2023-06-04T10:03:32;23.20;99.90
4183;DHT22;2105;52.300;9.182;2023-06-04T10:06:02;23.30;99.90
4183;DHT22;2105;52.300;9.182;2023-06-04T10:08:30;23.40;99.90
4183;DHT22;2105;52.300;9.182;2023-06-04T10:10:59;23.40;99.90
4183;DHT22;2105;52.300;9.182;2023-06-04T10:13:28;23.50;99.90
4183;DHT22;2105;52.300;9.182;2023-06-04T10:15:57;23.50;99.90
4183;DHT22;2105;52.300;9.182;2023-06-04T10:18:26;23.30;99.90
4183;DHT22;2105;52.300;9.182;2023-06-04T10:20:55;23.20;99.90
4183;DHT22;2105;52.300;9.182;2023-06-04T10:23:23;23.40;99.90
4183;DHT22;2105;52.300;9.182;2023-06-04T10:25:50;23.50;99.90
4183;DHT22;2105;52.300;9.182;2023-06-04T10:28:18;23.70;99.90
4183;DHT22;2105;52.300;9.182;2023-06-04T10:30:45;23.90;99.90
4183;DHT22;2105;52.300;9.182;2023-06-04T10:33:12;23.60;99.90
4183;DHT22;2105;52.300;9.182;2023-06-04T10:35:39;23.40;99.90
4183;DHT22;2105;52.300;9.182;2023-06-04T10:38:10;23.40;99.90
4183;DHT22;2105;52.300;9.182;2023-06-04T10:40:39;23.40;99.90
4183;DHT22;2105;52.300;9.182;2023-06-04T10:43:06;23.50;99.90
4183;DHT22;2105;52.300;9.182;2023-06-04T10:45:33;23.50;99.90
4183;DHT22;2105;52.300;9.182;2023-06-04T10:48:00;23.30;99.90
4183;DHT22;2105;52.300;9.182;2023-06-04T10:50:27;23.30;99.90
4183;DHT22;2105;52.300;9.182;2023-06-04T10:52:55;23.40;99.90
4183;DHT22;2105;52.300;9.182;2023-06-04T10:55:25;23.50;99.90
4183;DHT22;2105;52.300;9.182;2023-06-04T10:57:53;23.60;99.90
4183;DHT22;2105;52.300;9.182;2023-06-04T11:00:20;23.60;99.90
4183;DHT22;2105;52.300;9.182;2023-06-04T11:05:18;24.20;99.90
4183;DHT22;2105;52.300;9.182;2023-06-04T11:07:46;24.40;99.90
4183;DHT22;2105;52.300;9.182;2023-06-04T11:10:14;24.70;99.90
4183;DHT22;2105;52.300;9.182;2023-06-04T11:12:44;24.70;99.90
4183;DHT22;2105;52.300;9.182;2023-06-04T11:15:11;24.80;99.90
4183;DHT22;2105;52.300;9.182;2023-06-04T11:17:38;24.90;99.90
4183;DHT22;2105;52.300;9.182;2023-06-04T11:20:16;24.90;99.90
4183;DHT22;2105;52.300;9.182;2023-06-04T11:22:50;24.60;99.90
4183;DHT22;2105;52.300;9.182;2023-06-04T11:25:17;24.60;99.90
4183;DHT22;2105;52.300;9.182;2023-06-04T11:27:47;24.60;99.90
4183;DHT22;2105;52.300;9.182;2023-06-04T11:30:14;24.80;99.90
4183;DHT22;2105;52.300;9.182;2023-06-04T11:32:41;24.60;99.90
4183;DHT22;2105;52.300;9.182;2023-06-04T11:35:08;24.50;99.90
4183;DHT22;2105;52.300;9.182;2023-06-04T11:37:37;24.70;99.90
4183;DHT22;2105;52.300;9.182;2023-06-04T11:40:15;24.80;99.90
4183;DHT22;2105;52.300;9.182;2023-06-04T11:42:43;25.20;99.90
4183;DHT22;2105;52.300;9.182;2023-06-04T11:45:12;25.10;99.90
4183;DHT22;2105;52.300;9.182;2023-06-04T11:47:39;25.20;99.90
4183;DHT22;2105;52.300;9.182;2023-06-04T11:50:07;25.10;99.90
4183;DHT22;2105;52.300;9.182;2023-06-04T11:52:34;25.00;99.90
4183;DHT22;2105;52.300;9.182;2023-06-04T11:55:00;25.00;99.90
4183;DHT22;2105;52.300;9.182;2023-06-04T11:57:27;25.20;99.90
4183;DHT22;2105;52.300;9.182;2023-06-04T11:59:54;25.40;99.90
4183;DHT22;2105;52.300;9.182;2023-06-04T12:02:22;25.40;99.90
4183;DHT22;2105;52.300;9.182;2023-06-04T12:04:50;25.30;99.90
4183;DHT22;2105;52.300;9.182;2023-06-04T12:07:20;25.30;99.90
4183;DHT22;2105;52.300;9.182;2023-06-04T12:09:49;25.40;99.90
4183;DHT22;2105;52.300;9.182;2023-06-04T12:12:21;25.50;99.90
4183;DHT22;2105;52.300;9.182;2023-06-04T12:14:56;25.60;99.90
4183;DHT22;2105;52.300;9.182;2023-06-04T12:17:25;25.70;99.90
4183;DHT22;2105;52.300;9.182;2023-06-04T12:19:52;25.50;99.90
4183;DHT22;2105;52.300;9.182;2023-06-04T12:22:19;25.50;99.90
4183;DHT22;2105;52.300;9.182;2023-06-04T12:24:47;25.60;99.90
4183;DHT22;2105;52.300;9.182;2023-06-04T12:27:15;25.50;99.90
4183;DHT22;2105;52.300;9.182;2023-06-04T12:29:41;25.50;99.90
4183;DHT22;2105;52.300;9.182;2023-06-04T12:32:09;25.40;99.90
4183;DHT22;2105;52.300;9.182;2023-06-04T12:34:39;25.40;99.90
4183;DHT22;2105;52.300;9.182;2023-06-04T12:37:06;25.50;99.90
4183;DHT22;2105;52.300;9.182;2023-06-04T12:39:33;25.70;99.90
4183;DHT22;2105;52.300;9.182;2023-06-04T12:42:01;25.90;99.90
4183;DHT22;2105;52.300;9.182;2023-06-04T12:44:28;25.90;99.90
4183;DHT22;2105;52.300;9.182;2023-06-04T12:46:56;25.70;99.90
4183;DHT22;2105;52.300;9.182;2023-06-04T12:49:23;25.50;99.90
4183;DHT22;2105;52.300;9.182;2023-06-04T12:51:50;25.70;99.90
4183;DHT22;2105;52.300;9.182;2023-06-04T12:54:18;25.80;99.90
4183;DHT22;2105;52.300;9.182;2023-06-04T12:56:44;25.90;99.90
4183;DHT22;2105;52.300;9.182;2023-06-04T12:59:11;26.10;99.90
4183;DHT22;2105;52.300;9.182;2023-06-04T13:01:38;26.00;99.90
4183;DHT22;2105;52.300;9.182;2023-06-04T13:04:05;25.70;99.90
4183;DHT22;2105;52.300;9.182;2023-06-04T13:06:33;25.70;99.90
4183;DHT22;2105;52.300;9.182;2023-06-04T13:09:02;25.60;99.90
4183;DHT22;2105;52.300;9.182;2023-06-04T13:11:34;25.60;99.90
4183;DHT22;2105;52.300;9.182;2023-06-04T13:14:00;25.90;99.90
4183;DHT22;2105;52.300;9.182;2023-06-04T13:16:27;26.10;99.90
4183;DHT22;2105;52.300;9.182;2023-06-04T13:18:54;26.30;99.90
4183;DHT22;2105;52.300;9.182;2023-06-04T13:21:21;26.40;99.90
4183;DHT22;2105;52.300;9.182;2023-06-04T13:23:48;26.60;99.90
4183;DHT22;2105;52.300;9.182;2023-06-04T13:26:17;26.70;99.90
4183;DHT22;2105;52.300;9.182;2023-06-04T13:28:43;26.60;99.90
4183;DHT22;2105;52.300;9.182;2023-06-04T13:31:10;26.40;99.90
4183;DHT22;2105;52.300;9.182;2023-06-04T13:33:37;26.40;99.90
4183;DHT22;2105;52.300;9.182;2023-06-04T13:36:05;26.40;99.90
4183;DHT22;2105;52.300;9.182;2023-06-04T13:38:32;26.50;99.90
4183;DHT22;2105;52.300;9.182;2023-06-04T13:40:59;26.70;99.90
4183;DHT22;2105;52.300;9.182;2023-06-04T13:43:27;26.70;99.90
4183;DHT22;2105;52.300;9.182;2023-06-04T13:45:54;26.90;99.90
4183;DHT22;2105;52.300;9.182;2023-06-04T13:48:20;27.00;99.90
4183;DHT22;2105;52.300;9.182;2023-06-04T13:50:47;27.10;99.90
4183;DHT22;2105;52.300;9.182;2023-06-04T13:53:14;27.20;99.90
4183;DHT22;2105;52.300;9.182;2023-06-04T13:55:40;27.20;99.90
4183;DHT22;2105;52.300;9.182;2023-06-04T13:58:07;26.90;99.90
4183;DHT22;2105;52.300;9.182;2023-06-04T14:00:35;26.80;99.90
4183;DHT22;2105;52.300;9.182;2023-06-04T14:03:02;26.60;99.90
4183;DHT22;2105;52.300;9.182;2023-06-04T14:05:29;26.60;99.90
4183;DHT22;2105;52.300;9.182;2023-06-04T14:07:56;26.70;99.90
4183;DHT22;2105;52.300;9.182;2023-06-04T14:10:23;26.70;99.90
4183;DHT22;2105;52.300;9.182;2023-06-04T14:12:50;26.30;99.90
4183;DHT22;2105;52.300;9.182;2023-06-04T14:15:16;26.50;99.90
4183;DHT22;2105;52.300;9.182;2023-06-04T14:17:45;26.50;99.90
4183;DHT22;2105;52.300;9.182;2023-06-04T14:20:12;26.40;99.90
4183;DHT22;2105;52.300;9.182;2023-06-04T14:22:39;26.20;99.90
4183;DHT22;2105;52.300;9.182;2023-06-04T14:25:07;26.20;99.90
4183;DHT22;2105;52.300;9.182;2023-06-04T14:27:34;26.50;99.90
4183;DHT22;2105;52.300;9.182;2023-06-04T14:30:01;26.70;99.90
4183;DHT22;2105;52.300;9.182;2023-06-04T14:32:28;27.00;99.90
4183;DHT22;2105;52.300;9.182;2023-06-04T14:34:56;27.10;99.90
4183;DHT22;2105;52.300;9.182;2023-06-04T14:37:23;27.00;99.90
4183;DHT22;2105;52.300;9.182;2023-06-04T14:39:50;27.10;99.90
4183;DHT22;2105;52.300;9.182;2023-06-04T14:42:16;27.00;99.90
4183;DHT22;2105;52.300;9.182;2023-06-04T14:44:43;26.70;99.90
4183;DHT22;2105;52.300;9.182;2023-06-04T14:47:10;26.20;99.90
4183;DHT22;2105;52.300;9.182;2023-06-04T14:49:37;25.60;99.90
4183;DHT22;2105;52.300;9.182;2023-06-04T14:52:05;25.40;99.90
4183;DHT22;2105;52.300;9.182;2023-06-04T14:54:33;25.70;99.90
4183;DHT22;2105;52.300;9.182;2023-06-04T14:57:00;26.10;99.90
4183;DHT22;2105;52.300;9.182;2023-06-04T14:59:27;26.50;99.90
4183;DHT22;2105;52.300;9.182;2023-06-04T15:01:54;26.50;99.90
4183;DHT22;2105;52.300;9.182;2023-06-04T15:04:21;26.50;99.90
4183;DHT22;2105;52.300;9.182;2023-06-04T15:06:48;26.50;99.90
4183;DHT22;2105;52.300;9.182;2023-06-04T15:09:16;26.30;99.90
4183;DHT22;2105;52.300;9.182;2023-06-04T15:11:43;26.20;99.90
4183;DHT22;2105;52.300;9.182;2023-06-04T15:14:10;26.20;99.90
4183;DHT22;2105;52.300;9.182;2023-06-04T15:16:36;25.90;99.90
4183;DHT22;2105;52.300;9.182;2023-06-04T15:19:03;25.50;99.90
4183;DHT22;2105;52.300;9.182;2023-06-04T15:21:30;25.40;99.90
4183;DHT22;2105;52.300;9.182;2023-06-04T15:23:56;25.50;99.90
4183;DHT22;2105;52.300;9.182;2023-06-04T15:26:24;25.60;99.90
4183;DHT22;2105;52.300;9.182;2023-06-04T15:28:52;25.70;99.90
4183;DHT22;2105;52.300;9.182;2023-06-04T15:31:19;25.90;99.90
4183;DHT22;2105;52.300;9.182;2023-06-04T15:33:45;26.10;99.90
4183;DHT22;2105;52.300;9.182;2023-06-04T15:36:12;26.30;99.90
4183;DHT22;2105;52.300;9.182;2023-06-04T15:38:39;26.40;99.90
4183;DHT22;2105;52.300;9.182;2023-06-04T15:41:05;26.30;99.90
4183;DHT22;2105;52.300;9.182;2023-06-04T15:43:34;26.20;99.90
4183;DHT22;2105;52.300;9.182;2023-06-04T15:46:00;26.00;99.90
4183;DHT22;2105;52.300;9.182;2023-06-04T15:48:27;26.20;99.90
4183;DHT22;2105;52.300;9.182;2023-06-04T15:50:54;26.40;99.90
4183;DHT22;2105;52.300;9.182;2023-06-04T15:53:21;26.60;99.90
4183;DHT22;2105;52.300;9.182;2023-06-04T15:55:49;26.10;99.90
4183;DHT22;2105;52.300;9.182;2023-06-04T15:58:16;25.90;99.90
4183;DHT22;2105;52.300;9.182;2023-06-04T16:00:44;25.90;99.90
4183;DHT22;2105;52.300;9.182;2023-06-04T16:03:11;26.20;99.90
4183;DHT22;2105;52.300;9.182;2023-06-04T16:05:37;26.10;99.90
4183;DHT22;2105;52.300;9.182;2023-06-04T16:08:04;25.70;99.90
4183;DHT22;2105;52.300;9.182;2023-06-04T16:10:31;25.70;99.90
4183;DHT22;2105;52.300;9.182;2023-06-04T16:12:57;25.80;99.90
4183;DHT22;2105;52.300;9.182;2023-06-04T16:15:24;25.40;99.90
4183;DHT22;2105;52.300;9.182;2023-06-04T16:17:52;25.20;99.90